createdAt,value
2019-06-10T20:39:38.115Z,6.83
2019-06-10T20:42:12.886Z,7.30
2019-06-10T20:44:47.892Z,7.85
2019-06-10T20:47:23.034Z,6.67
2019-06-10T20:49:56.512Z,6.50
2019-06-10T20:52:29.812Z,7.37
2019-06-10T20:55:03.278Z,7.37
2019-06-10T20:57:50.923Z,7.08
2019-06-10T21:00:22.244Z,8.38
2019-06-10T21:02:48.629Z,6.35
2019-06-10T21:05:22.531Z,7.87
2019-06-10T21:07:57.991Z,6.85
2019-06-10T21:10:39.805Z,7.37
2019-06-10T21:13:13.389Z,6.75
2019-06-10T21:15:49.980Z,6.10
2019-06-10T21:18:22.554Z,7.08
2019-06-10T21:20:56.396Z,7.17
2019-06-10T21:23:29.931Z,7.60
2019-06-10T21:26:03.297Z,7.30
2019-06-10T21:28:36.783Z,6.83
2019-06-10T21:31:10.259Z,7.45
2019-06-10T21:33:45.896Z,8.23
2019-06-10T21:36:18.508Z,7.12
2019-06-10T21:38:55.389Z,7.17
2019-06-10T21:41:26.682Z,7.28
2019-06-10T21:44:02.788Z,7.42
2019-06-10T21:46:34.901Z,7.17
2019-06-10T21:49:08.180Z,7.42
2019-06-10T21:51:45.314Z,8.50
2019-06-10T21:54:16.435Z,7.75
2019-06-10T21:56:52.389Z,7.20
2019-06-10T21:59:24.819Z,7.70
2019-06-10T22:01:58.176Z,6.72
2019-06-10T22:04:32.660Z,7.55
2019-06-10T22:07:06.418Z,7.45
2019-06-10T22:09:42.409Z,9.03
2019-06-10T22:12:15.189Z,10.93
2019-06-10T22:14:48.480Z,14.58
2019-06-10T22:17:21.823Z,16.30
2019-06-10T22:19:56.427Z,15.70
2019-06-10T22:22:32.239Z,15.72
2019-06-10T22:25:07.276Z,15.78
2019-06-10T22:27:42.061Z,14.05
2019-06-10T22:30:17.247Z,13.83
2019-06-10T22:32:54.909Z,13.85
2019-06-10T22:35:25.695Z,13.20
2019-06-10T22:37:58.987Z,12.25
2019-06-10T22:40:32.844Z,11.22
2019-06-10T22:43:08.073Z,10.23
2019-06-10T22:45:42.425Z,10.38
2019-06-10T22:48:15.907Z,9.23
2019-06-10T22:50:49.192Z,10.08
2019-06-10T22:53:23.163Z,8.75
2019-06-10T22:55:58.112Z,8.70
2019-06-10T22:58:32.757Z,9.15
2019-06-10T23:01:06.085Z,8.00
2019-06-10T23:03:39.390Z,7.97
2019-06-10T23:06:12.682Z,8.28
2019-06-10T23:08:45.963Z,9.00
2019-06-10T23:11:19.252Z,7.40
2019-06-10T23:13:54.707Z,7.50
2019-06-10T23:16:27.568Z,7.33
2019-06-10T23:19:02.991Z,7.92
2019-06-10T23:21:35.812Z,7.83
2019-06-10T23:24:09.111Z,6.95
2019-06-10T23:26:42.576Z,7.70
2019-06-10T23:29:15.993Z,8.30
2019-06-10T23:31:54.435Z,8.03
2019-06-10T23:34:24.576Z,7.05
2019-06-10T23:36:58.746Z,7.83
2019-06-10T23:39:33.458Z,6.78
2019-06-10T23:42:07.219Z,7.08
2019-06-10T23:44:40.429Z,7.42
2019-06-10T23:47:13.621Z,8.18
2019-06-10T23:49:46.862Z,7.42
2019-06-10T23:52:22.139Z,8.25
2019-06-10T23:54:55.894Z,7.70
2019-06-10T23:57:29.250Z,7.15
